sensor_id;sensor_type;location;lat;lon;timestamp;P1;durP1;ratioP1;P2;durP2;ratioP2
3757;SDS011;1894;51.038;13.692;2023-02-28T00:01:30;9.50;;;5.60;;
3757;SDS011;1894;51.038;13.692;2023-02-28T00:03:58;8.33;;;5.50;;
3757;SDS011;1894;51.038;13.692;2023-02-28T00:06:26;7.10;;;4.63;;
3757;SDS011;1894;51.038;13.692;2023-02-28T00:08:53;5.33;;;4.10;;
3757;SDS011;1894;51.038;13.692;2023-02-28T00:11:21;6.20;;;4.80;;
3757;SDS011;1894;51.038;13.692;2023-02-28T00:13:49;6.03;;;4.33;;
3757;SDS011;1894;51.038;13.692;2023-02-28T00:16:17;7.63;;;4.37;;
3757;SDS011;1894;51.038;13.692;2023-02-28T00:18:47;6.10;;;4.77;;
3757;SDS011;1894;51.038;13.692;2023-02-28T00:21:16;7.83;;;4.70;;
3757;SDS011;1894;51.038;13.692;2023-02-28T00:23:44;6.97;;;4.00;;
3757;SDS011;1894;51.038;13.692;2023-02-28T00:26:12;5.23;;;4.10;;
3757;SDS011;1894;51.038;13.692;2023-02-28T00:28:43;7.03;;;3.97;;
3757;SDS011;1894;51.038;13.692;2023-02-28T00:31:10;10.10;;;3.77;;
3757;SDS011;1894;51.038;13.692;2023-02-28T00:33:37;7.17;;;3.80;;
3757;SDS011;1894;51.038;13.692;2023-02-28T00:36:05;11.10;;;4.67;;
3757;SDS011;1894;51.038;13.692;2023-02-28T00:38:36;6.73;;;4.50;;
3757;SDS011;1894;51.038;13.692;2023-02-28T00:41:04;6.47;;;4.80;;
3757;SDS011;1894;51.038;13.692;2023-02-28T00:43:33;7.90;;;4.00;;
3757;SDS011;1894;51.038;13.692;2023-02-28T00:46:02;9.47;;;3.90;;
3757;SDS011;1894;51.038;13.692;2023-02-28T00:48:31;5.90;;;4.17;;
3757;SDS011;1894;51.038;13.692;2023-02-28T00:50:58;5.30;;;4.10;;
3757;SDS011;1894;51.038;13.692;2023-02-28T00:53:26;5.73;;;4.73;;
3757;SDS011;1894;51.038;13.692;2023-02-28T00:55:56;6.93;;;4.83;;
3757;SDS011;1894;51.038;13.692;2023-02-28T00:58:24;7.47;;;4.13;;
3757;SDS011;1894;51.038;13.692;2023-02-28T01:00:52;5.33;;;4.57;;
3757;SDS011;1894;51.038;13.692;2023-02-28T01:03:20;8.20;;;4.93;;
3757;SDS011;1894;51.038;13.692;2023-02-28T01:05:49;6.27;;;4.50;;
3757;SDS011;1894;51.038;13.692;2023-02-28T01:08:16;7.07;;;4.90;;
3757;SDS011;1894;51.038;13.692;2023-02-28T01:10:43;6.00;;;3.70;;
3757;SDS011;1894;51.038;13.692;2023-02-28T01:13:11;8.00;;;4.40;;
3757;SDS011;1894;51.038;13.692;2023-02-28T01:15:43;6.43;;;4.43;;
3757;SDS011;1894;51.038;13.692;2023-02-28T01:18:18;6.00;;;4.13;;
3757;SDS011;1894;51.038;13.692;2023-02-28T01:20:45;5.70;;;4.30;;
3757;SDS011;1894;51.038;13.692;2023-02-28T01:23:15;6.57;;;4.60;;
3757;SDS011;1894;51.038;13.692;2023-02-28T01:25:42;5.40;;;3.80;;
3757;SDS011;1894;51.038;13.692;2023-02-28T01:28:09;6.27;;;4.30;;
3757;SDS011;1894;51.038;13.692;2023-02-28T01:30:36;8.13;;;4.63;;
3757;SDS011;1894;51.038;13.692;2023-02-28T01:33:05;7.43;;;4.17;;
3757;SDS011;1894;51.038;13.692;2023-02-28T01:35:32;4.87;;;4.33;;
3757;SDS011;1894;51.038;13.692;2023-02-28T01:38:01;6.20;;;4.47;;
3757;SDS011;1894;51.038;13.692;2023-02-28T01:40:46;6.50;;;4.90;;
3757;SDS011;1894;51.038;13.692;2023-02-28T01:43:20;7.80;;;4.10;;
3757;SDS011;1894;51.038;13.692;2023-02-28T01:45:47;7.83;;;4.70;;
3757;SDS011;1894;51.038;13.692;2023-02-28T01:48:15;9.63;;;4.23;;
3757;SDS011;1894;51.038;13.692;2023-02-28T01:50:43;11.10;;;4.53;;
3757;SDS011;1894;51.038;13.692;2023-02-28T01:53:16;8.43;;;5.67;;
3757;SDS011;1894;51.038;13.692;2023-02-28T01:55:50;5.43;;;4.40;;
3757;SDS011;1894;51.038;13.692;2023-02-28T01:58:20;5.37;;;4.00;;
3757;SDS011;1894;51.038;13.692;2023-02-28T02:00:47;5.97;;;4.77;;
3757;SDS011;1894;51.038;13.692;2023-02-28T02:03:15;7.50;;;4.17;;
3757;SDS011;1894;51.038;13.692;2023-02-28T02:05:47;9.27;;;5.33;;
3757;SDS011;1894;51.038;13.692;2023-02-28T02:08:16;4.73;;;4.30;;
3757;SDS011;1894;51.038;13.692;2023-02-28T02:10:50;8.60;;;4.63;;
3757;SDS011;1894;51.038;13.692;2023-02-28T02:16:10;20.70;;;5.23;;
3757;SDS011;1894;51.038;13.692;2023-02-28T02:18:53;12.20;;;6.20;;
3757;SDS011;1894;51.038;13.692;2023-02-28T02:27:39;6.10;;;4.23;;
3757;SDS011;1894;51.038;13.692;2023-02-28T02:39:02;6.27;;;4.27;;
3757;SDS011;1894;51.038;13.692;2023-02-28T02:42:28;6.83;;;4.60;;
3757;SDS011;1894;51.038;13.692;2023-02-28T02:45:14;6.07;;;3.77;;
3757;SDS011;1894;51.038;13.692;2023-02-28T02:48:16;7.27;;;4.30;;
3757;SDS011;1894;51.038;13.692;2023-02-28T02:50:53;12.53;;;3.97;;
3757;SDS011;1894;51.038;13.692;2023-02-28T02:53:27;8.27;;;4.57;;
3757;SDS011;1894;51.038;13.692;2023-02-28T02:56:06;6.57;;;4.40;;
3757;SDS011;1894;51.038;13.692;2023-02-28T02:58:38;6.50;;;4.60;;
3757;SDS011;1894;51.038;13.692;2023-02-28T03:01:12;8.73;;;5.43;;
3757;SDS011;1894;51.038;13.692;2023-02-28T03:03:55;5.87;;;4.10;;
3757;SDS011;1894;51.038;13.692;2023-02-28T03:06:26;6.43;;;3.87;;
3757;SDS011;1894;51.038;13.692;2023-02-28T03:08:54;6.30;;;5.00;;
3757;SDS011;1894;51.038;13.692;2023-02-28T03:11:21;6.87;;;4.47;;
3757;SDS011;1894;51.038;13.692;2023-02-28T03:22:08;10.60;;;6.13;;
3757;SDS011;1894;51.038;13.692;2023-02-28T03:30:54;8.80;;;5.33;;
3757;SDS011;1894;51.038;13.692;2023-02-28T03:33:50;5.27;;;4.40;;
3757;SDS011;1894;51.038;13.692;2023-02-28T03:36:26;7.07;;;5.67;;
3757;SDS011;1894;51.038;13.692;2023-02-28T03:44:07;7.90;;;5.23;;
3757;SDS011;1894;51.038;13.692;2023-02-28T03:47:07;13.07;;;5.80;;
3757;SDS011;1894;51.038;13.692;2023-02-28T03:49:54;7.50;;;4.80;;
3757;SDS011;1894;51.038;13.692;2023-02-28T03:52:34;9.47;;;6.10;;
3757;SDS011;1894;51.038;13.692;2023-02-28T03:55:09;9.57;;;6.07;;
3757;SDS011;1894;51.038;13.692;2023-02-28T03:57:45;12.73;;;5.57;;
3757;SDS011;1894;51.038;13.692;2023-02-28T04:01:03;12.07;;;6.50;;
3757;SDS011;1894;51.038;13.692;2023-02-28T04:03:56;8.30;;;5.37;;
3757;SDS011;1894;51.038;13.692;2023-02-28T04:06:23;12.40;;;6.40;;
3757;SDS011;1894;51.038;13.692;2023-02-28T04:08:51;9.40;;;6.53;;
3757;SDS011;1894;51.038;13.692;2023-02-28T04:11:20;8.33;;;5.90;;
3757;SDS011;1894;51.038;13.692;2023-02-28T04:13:59;11.90;;;6.57;;
3757;SDS011;1894;51.038;13.692;2023-02-28T04:16:27;9.37;;;5.97;;
3757;SDS011;1894;51.038;13.692;2023-02-28T04:19:02;14.53;;;7.23;;
3757;SDS011;1894;51.038;13.692;2023-02-28T04:21:33;8.20;;;5.97;;
3757;SDS011;1894;51.038;13.692;2023-02-28T04:24:08;11.30;;;6.40;;
3757;SDS011;1894;51.038;13.692;2023-02-28T04:26:41;8.20;;;5.57;;
3757;SDS011;1894;51.038;13.692;2023-02-28T04:29:11;9.90;;;5.70;;
3757;SDS011;1894;51.038;13.692;2023-02-28T04:31:45;8.43;;;5.93;;
3757;SDS011;1894;51.038;13.692;2023-02-28T04:34:13;11.87;;;6.40;;
3757;SDS011;1894;51.038;13.692;2023-02-28T04:36:40;12.20;;;6.73;;
3757;SDS011;1894;51.038;13.692;2023-02-28T04:39:07;13.30;;;6.33;;
3757;SDS011;1894;51.038;13.692;2023-02-28T04:41:36;10.73;;;6.97;;
3757;SDS011;1894;51.038;13.692;2023-02-28T04:44:03;10.80;;;7.63;;
3757;SDS011;1894;51.038;13.692;2023-02-28T04:46:30;11.40;;;7.10;;
3757;SDS011;1894;51.038;13.692;2023-02-28T04:48:58;40.70;;;20.97;;
3757;SDS011;1894;51.038;13.692;2023-02-28T04:51:25;10.30;;;7.13;;
3757;SDS011;1894;51.038;13.692;2023-02-28T04:53:53;34.00;;;17.63;;
3757;SDS011;1894;51.038;13.692;2023-02-28T04:56:20;22.53;;;11.17;;
3757;SDS011;1894;51.038;13.692;2023-02-28T04:58:48;14.40;;;8.60;;
3757;SDS011;1894;51.038;13.692;2023-02-28T05:01:20;9.63;;;7.03;;
3757;SDS011;1894;51.038;13.692;2023-02-28T05:03:49;12.07;;;7.80;;
3757;SDS011;1894;51.038;13.692;2023-02-28T05:06:19;12.40;;;7.67;;
3757;SDS011;1894;51.038;13.692;2023-02-28T05:08:47;10.77;;;7.20;;
3757;SDS011;1894;51.038;13.692;2023-02-28T05:11:18;10.77;;;7.87;;
3757;SDS011;1894;51.038;13.692;2023-02-28T05:13:49;11.50;;;7.50;;
3757;SDS011;1894;51.038;13.692;2023-02-28T05:16:17;12.03;;;7.97;;
3757;SDS011;1894;51.038;13.692;2023-02-28T05:18:45;14.37;;;8.73;;
3757;SDS011;1894;51.038;13.692;2023-02-28T05:21:58;13.57;;;8.57;;
3757;SDS011;1894;51.038;13.692;2023-02-28T05:24:06;12.17;;;8.10;;
3757;SDS011;1894;51.038;13.692;2023-02-28T05:26:41;10.57;;;7.17;;
3757;SDS011;1894;51.038;13.692;2023-02-28T05:29:09;19.87;;;8.87;;
3757;SDS011;1894;51.038;13.692;2023-02-28T05:31:37;13.40;;;8.30;;
3757;SDS011;1894;51.038;13.692;2023-02-28T05:34:04;13.07;;;8.67;;
3757;SDS011;1894;51.038;13.692;2023-02-28T05:36:32;17.30;;;9.10;;
3757;SDS011;1894;51.038;13.692;2023-02-28T05:38:59;16.23;;;9.30;;
3757;SDS011;1894;51.038;13.692;2023-02-28T05:41:27;12.40;;;8.60;;
3757;SDS011;1894;51.038;13.692;2023-02-28T05:43:54;20.47;;;8.93;;
3757;SDS011;1894;51.038;13.692;2023-02-28T05:46:21;14.07;;;8.87;;
3757;SDS011;1894;51.038;13.692;2023-02-28T05:48:49;14.30;;;8.13;;
3757;SDS011;1894;51.038;13.692;2023-02-28T05:51:17;15.70;;;8.50;;
3757;SDS011;1894;51.038;13.692;2023-02-28T05:53:44;12.00;;;8.40;;
3757;SDS011;1894;51.038;13.692;2023-02-28T05:56:11;19.63;;;8.60;;
3757;SDS011;1894;51.038;13.692;2023-02-28T05:58:38;12.83;;;7.53;;
3757;SDS011;1894;51.038;13.692;2023-02-28T06:01:19;16.93;;;8.90;;
3757;SDS011;1894;51.038;13.692;2023-02-28T06:04:01;11.93;;;8.73;;
3757;SDS011;1894;51.038;13.692;2023-02-28T06:06:30;13.20;;;8.87;;
3757;SDS011;1894;51.038;13.692;2023-02-28T06:08:57;15.37;;;9.73;;
3757;SDS011;1894;51.038;13.692;2023-02-28T06:11:24;14.17;;;9.07;;
3757;SDS011;1894;51.038;13.692;2023-02-28T06:13:54;17.60;;;9.00;;
3757;SDS011;1894;51.038;13.692;2023-02-28T06:16:23;15.70;;;9.80;;
3757;SDS011;1894;51.038;13.692;2023-02-28T06:18:51;14.50;;;9.13;;
3757;SDS011;1894;51.038;13.692;2023-02-28T06:21:19;16.90;;;12.03;;
3757;SDS011;1894;51.038;13.692;2023-02-28T06:23:46;15.27;;;9.37;;
3757;SDS011;1894;51.038;13.692;2023-02-28T06:26:13;18.87;;;11.80;;
3757;SDS011;1894;51.038;13.692;2023-02-28T06:28:40;18.40;;;10.40;;
3757;SDS011;1894;51.038;13.692;2023-02-28T06:31:11;16.47;;;10.13;;
3757;SDS011;1894;51.038;13.692;2023-02-28T06:33:42;22.53;;;10.77;;
3757;SDS011;1894;51.038;13.692;2023-02-28T06:36:11;17.40;;;10.10;;
3757;SDS011;1894;51.038;13.692;2023-02-28T06:38:40;12.33;;;10.27;;
3757;SDS011;1894;51.038;13.692;2023-02-28T06:41:08;14.17;;;8.63;;
3757;SDS011;1894;51.038;13.692;2023-02-28T06:43:40;12.60;;;8.30;;
3757;SDS011;1894;51.038;13.692;2023-02-28T06:46:10;16.13;;;10.80;;
3757;SDS011;1894;51.038;13.692;2023-02-28T06:48:40;11.07;;;8.50;;
3757;SDS011;1894;51.038;13.692;2023-02-28T06:51:17;16.53;;;9.20;;
3757;SDS011;1894;51.038;13.692;2023-02-28T06:53:48;18.33;;;11.17;;
3757;SDS011;1894;51.038;13.692;2023-02-28T06:56:16;18.53;;;10.50;;
3757;SDS011;1894;51.038;13.692;2023-02-28T06:58:49;16.33;;;9.87;;
3757;SDS011;1894;51.038;13.692;2023-02-28T07:01:19;17.40;;;10.33;;
3757;SDS011;1894;51.038;13.692;2023-02-28T07:03:46;17.13;;;10.37;;
3757;SDS011;1894;51.038;13.692;2023-02-28T07:06:19;13.97;;;9.73;;
3757;SDS011;1894;51.038;13.692;2023-02-28T07:08:49;14.30;;;9.57;;
3757;SDS011;1894;51.038;13.692;2023-02-28T07:11:19;13.80;;;9.80;;
3757;SDS011;1894;51.038;13.692;2023-02-28T07:13:49;13.23;;;9.47;;
3757;SDS011;1894;51.038;13.692;2023-02-28T07:16:17;13.93;;;9.10;;
3757;SDS011;1894;51.038;13.692;2023-02-28T07:18:45;14.57;;;8.57;;
3757;SDS011;1894;51.038;13.692;2023-02-28T07:21:12;21.77;;;9.57;;
3757;SDS011;1894;51.038;13.692;2023-02-28T07:23:39;12.90;;;8.90;;
3757;SDS011;1894;51.038;13.692;2023-02-28T07:26:07;11.80;;;8.30;;
3757;SDS011;1894;51.038;13.692;2023-02-28T07:28:42;15.27;;;10.10;;
3757;SDS011;1894;51.038;13.692;2023-02-28T07:31:11;14.70;;;9.23;;
3757;SDS011;1894;51.038;13.692;2023-02-28T07:33:40;18.93;;;8.93;;
3757;SDS011;1894;51.038;13.692;2023-02-28T07:36:10;13.77;;;9.60;;
3757;SDS011;1894;51.038;13.692;2023-02-28T07:38:42;14.73;;;8.80;;
3757;SDS011;1894;51.038;13.692;2023-02-28T07:41:14;14.53;;;10.40;;
3757;SDS011;1894;51.038;13.692;2023-02-28T07:43:46;14.17;;;8.40;;
3757;SDS011;1894;51.038;13.692;2023-02-28T07:46:14;13.93;;;9.07;;
3757;SDS011;1894;51.038;13.692;2023-02-28T07:48:43;12.70;;;8.40;;
3757;SDS011;1894;51.038;13.692;2023-02-28T07:51:11;14.83;;;8.50;;
3757;SDS011;1894;51.038;13.692;2023-02-28T07:53:38;11.30;;;7.97;;
3757;SDS011;1894;51.038;13.692;2023-02-28T07:56:06;16.70;;;8.80;;
3757;SDS011;1894;51.038;13.692;2023-02-28T07:58:33;13.27;;;9.07;;
3757;SDS011;1894;51.038;13.692;2023-02-28T08:01:07;12.97;;;9.27;;
3757;SDS011;1894;51.038;13.692;2023-02-28T08:03:36;15.00;;;8.77;;
3757;SDS011;1894;51.038;13.692;2023-02-28T08:06:05;12.40;;;7.50;;
3757;SDS011;1894;51.038;13.692;2023-02-28T08:08:34;12.67;;;9.40;;
3757;SDS011;1894;51.038;13.692;2023-02-28T08:11:02;15.13;;;8.70;;
3757;SDS011;1894;51.038;13.692;2023-02-28T08:13:30;10.67;;;8.30;;
3757;SDS011;1894;51.038;13.692;2023-02-28T08:15:57;13.33;;;8.37;;
3757;SDS011;1894;51.038;13.692;2023-02-28T08:18:24;14.13;;;8.70;;
3757;SDS011;1894;51.038;13.692;2023-02-28T08:20:51;17.50;;;9.40;;
3757;SDS011;1894;51.038;13.692;2023-02-28T08:23:19;13.43;;;9.37;;
3757;SDS011;1894;51.038;13.692;2023-02-28T08:25:52;13.23;;;8.37;;
3757;SDS011;1894;51.038;13.692;2023-02-28T08:28:21;16.43;;;8.60;;
3757;SDS011;1894;51.038;13.692;2023-02-28T08:30:52;14.20;;;8.30;;
3757;SDS011;1894;51.038;13.692;2023-02-28T08:33:20;18.90;;;8.70;;
3757;SDS011;1894;51.038;13.692;2023-02-28T08:35:52;13.00;;;8.10;;
3757;SDS011;1894;51.038;13.692;2023-02-28T08:38:21;17.07;;;8.37;;
3757;SDS011;1894;51.038;13.692;2023-02-28T08:40:48;26.77;;;10.83;;
3757;SDS011;1894;51.038;13.692;2023-02-28T08:43:16;17.27;;;9.87;;
3757;SDS011;1894;51.038;13.692;2023-02-28T08:45:43;14.67;;;8.90;;
3757;SDS011;1894;51.038;13.692;2023-02-28T08:48:10;14.50;;;9.23;;
3757;SDS011;1894;51.038;13.692;2023-02-28T08:50:37;12.83;;;7.50;;
3757;SDS011;1894;51.038;13.692;2023-02-28T08:53:04;10.30;;;7.90;;
3757;SDS011;1894;51.038;13.692;2023-02-28T08:55:31;16.53;;;8.43;;
3757;SDS011;1894;51.038;13.692;2023-02-28T08:57:58;10.57;;;7.30;;
3757;SDS011;1894;51.038;13.692;2023-02-28T09:00:27;16.67;;;7.67;;
3757;SDS011;1894;51.038;13.692;2023-02-28T09:02:55;14.07;;;7.80;;
3757;SDS011;1894;51.038;13.692;2023-02-28T09:05:22;13.80;;;8.43;;
3757;SDS011;1894;51.038;13.692;2023-02-28T09:07:49;15.37;;;8.30;;
3757;SDS011;1894;51.038;13.692;2023-02-28T09:10:16;13.77;;;7.10;;
3757;SDS011;1894;51.038;13.692;2023-02-28T09:12:43;10.43;;;7.37;;
3757;SDS011;1894;51.038;13.692;2023-02-28T09:15:12;11.87;;;6.30;;
3757;SDS011;1894;51.038;13.692;2023-02-28T09:17:40;15.63;;;7.40;;
3757;SDS011;1894;51.038;13.692;2023-02-28T09:20:08;10.70;;;7.10;;
3757;SDS011;1894;51.038;13.692;2023-02-28T09:22:36;12.50;;;7.07;;
3757;SDS011;1894;51.038;13.692;2023-02-28T09:25:03;11.50;;;5.90;;
3757;SDS011;1894;51.038;13.692;2023-02-28T09:27:31;12.17;;;6.80;;
3757;SDS011;1894;51.038;13.692;2023-02-28T09:29:58;14.43;;;6.63;;
3757;SDS011;1894;51.038;13.692;2023-02-28T09:32:25;10.50;;;7.00;;
3757;SDS011;1894;51.038;13.692;2023-02-28T09:34:52;11.77;;;6.57;;
3757;SDS011;1894;51.038;13.692;2023-02-28T09:37:20;11.47;;;7.10;;
3757;SDS011;1894;51.038;13.692;2023-02-28T09:39:47;17.03;;;6.20;;
3757;SDS011;1894;51.038;13.692;2023-02-28T09:42:17;9.70;;;6.13;;
3757;SDS011;1894;51.038;13.692;2023-02-28T09:49:19;8.13;;;6.00;;
3757;SDS011;1894;51.038;13.692;2023-02-28T09:54:42;12.27;;;6.17;;
3757;SDS011;1894;51.038;13.692;2023-02-28T09:57:40;8.77;;;6.27;;
3757;SDS011;1894;51.038;13.692;2023-02-28T10:05:38;7.10;;;5.40;;
3757;SDS011;1894;51.038;13.692;2023-02-28T10:08:45;7.90;;;5.37;;
3757;SDS011;1894;51.038;13.692;2023-02-28T10:11:50;9.00;;;5.70;;
3757;SDS011;1894;51.038;13.692;2023-02-28T10:14:27;8.03;;;5.47;;
3757;SDS011;1894;51.038;13.692;2023-02-28T10:17:04;7.00;;;4.87;;
3757;SDS011;1894;51.038;13.692;2023-02-28T10:19:50;6.70;;;4.80;;
3757;SDS011;1894;51.038;13.692;2023-02-28T10:22:58;9.03;;;5.57;;
3757;SDS011;1894;51.038;13.692;2023-02-28T10:26:04;6.20;;;5.10;;
3757;SDS011;1894;51.038;13.692;2023-02-28T10:28:41;7.97;;;5.53;;
3757;SDS011;1894;51.038;13.692;2023-02-28T10:31:19;7.53;;;5.97;;
3757;SDS011;1894;51.038;13.692;2023-02-28T10:33:54;7.93;;;5.83;;
3757;SDS011;1894;51.038;13.692;2023-02-28T10:36:23;11.50;;;6.00;;
3757;SDS011;1894;51.038;13.692;2023-02-28T10:38:50;8.63;;;5.87;;
3757;SDS011;1894;51.038;13.692;2023-02-28T10:41:28;11.13;;;6.43;;
3757;SDS011;1894;51.038;13.692;2023-02-28T10:44:12;7.73;;;5.20;;
3757;SDS011;1894;51.038;13.692;2023-02-28T10:46:48;9.20;;;6.30;;
3757;SDS011;1894;51.038;13.692;2023-02-28T10:49:21;8.10;;;6.60;;
3757;SDS011;1894;51.038;13.692;2023-02-28T10:51:56;10.17;;;7.07;;
3757;SDS011;1894;51.038;13.692;2023-02-28T10:54:30;9.57;;;6.90;;
3757;SDS011;1894;51.038;13.692;2023-02-28T10:57:16;10.63;;;7.43;;
3757;SDS011;1894;51.038;13.692;2023-02-28T10:59:51;11.00;;;7.10;;
3757;SDS011;1894;51.038;13.692;2023-02-28T11:02:34;10.00;;;7.37;;
3757;SDS011;1894;51.038;13.692;2023-02-28T11:10:48;9.87;;;6.40;;
3757;SDS011;1894;51.038;13.692;2023-02-28T11:13:34;8.73;;;6.90;;
3757;SDS011;1894;51.038;13.692;2023-02-28T11:16:05;13.60;;;7.50;;
3757;SDS011;1894;51.038;13.692;2023-02-28T11:18:41;12.00;;;7.33;;
3757;SDS011;1894;51.038;13.692;2023-02-28T11:21:32;14.17;;;7.70;;
3757;SDS011;1894;51.038;13.692;2023-02-28T11:24:14;14.47;;;7.77;;
3757;SDS011;1894;51.038;13.692;2023-02-28T11:26:55;10.40;;;7.57;;
3757;SDS011;1894;51.038;13.692;2023-02-28T11:34:44;13.87;;;7.00;;
3757;SDS011;1894;51.038;13.692;2023-02-28T11:37:18;11.50;;;8.00;;
3757;SDS011;1894;51.038;13.692;2023-02-28T11:39:45;11.00;;;7.80;;
3757;SDS011;1894;51.038;13.692;2023-02-28T12:05:05;7.60;;;6.80;;
3757;SDS011;1894;51.038;13.692;2023-02-28T12:11:03;9.20;;;6.93;;
3757;SDS011;1894;51.038;13.692;2023-02-28T12:19:54;9.43;;;7.03;;
3757;SDS011;1894;51.038;13.692;2023-02-28T12:22:47;9.23;;;7.50;;
3757;SDS011;1894;51.038;13.692;2023-02-28T12:28:15;9.50;;;8.03;;
3757;SDS011;1894;51.038;13.692;2023-02-28T12:33:51;10.17;;;7.30;;
3757;SDS011;1894;51.038;13.692;2023-02-28T12:36:31;8.20;;;6.90;;
3757;SDS011;1894;51.038;13.692;2023-02-28T12:42:22;19.43;;;11.73;;
3757;SDS011;1894;51.038;13.692;2023-02-28T12:44:58;9.00;;;6.70;;
3757;SDS011;1894;51.038;13.692;2023-02-28T12:47:37;9.30;;;6.70;;
3757;SDS011;1894;51.038;13.692;2023-02-28T12:50:08;8.53;;;6.63;;
3757;SDS011;1894;51.038;13.692;2023-02-28T13:01:42;8.67;;;7.77;;
3757;SDS011;1894;51.038;13.692;2023-02-28T13:04:31;9.03;;;8.13;;
3757;SDS011;1894;51.038;13.692;2023-02-28T13:08:11;12.50;;;8.30;;
3757;SDS011;1894;51.038;13.692;2023-02-28T13:11:04;12.80;;;9.10;;
3757;SDS011;1894;51.038;13.692;2023-02-28T13:13:28;22.03;;;9.17;;
3757;SDS011;1894;51.038;13.692;2023-02-28T13:16:07;11.83;;;9.73;;
3757;SDS011;1894;51.038;13.692;2023-02-28T13:18:40;15.90;;;8.77;;
3757;SDS011;1894;51.038;13.692;2023-02-28T13:21:23;10.83;;;8.40;;
3757;SDS011;1894;51.038;13.692;2023-02-28T13:24:02;11.90;;;8.73;;
3757;SDS011;1894;51.038;13.692;2023-02-28T13:34:33;9.90;;;8.10;;
3757;SDS011;1894;51.038;13.692;2023-02-28T13:39:49;10.00;;;8.60;;
3757;SDS011;1894;51.038;13.692;2023-02-28T13:42:52;11.13;;;8.30;;
3757;SDS011;1894;51.038;13.692;2023-02-28T13:45:21;15.27;;;9.33;;
3757;SDS011;1894;51.038;13.692;2023-02-28T13:50:32;13.00;;;9.10;;
3757;SDS011;1894;51.038;13.692;2023-02-28T14:04:37;10.33;;;8.43;;
3757;SDS011;1894;51.038;13.692;2023-02-28T14:07:28;9.70;;;8.67;;
3757;SDS011;1894;51.038;13.692;2023-02-28T14:10:18;13.30;;;10.60;;
3757;SDS011;1894;51.038;13.692;2023-02-28T14:13:01;13.00;;;9.53;;
3757;SDS011;1894;51.038;13.692;2023-02-28T14:18:31;12.10;;;10.30;;
3757;SDS011;1894;51.038;13.692;2023-02-28T14:26:58;12.37;;;9.20;;
3757;SDS011;1894;51.038;13.692;2023-02-28T14:38:19;9.70;;;8.70;;
3757;SDS011;1894;51.038;13.692;2023-02-28T14:40:51;14.33;;;9.73;;
3757;SDS011;1894;51.038;13.692;2023-02-28T14:43:22;12.00;;;10.03;;
3757;SDS011;1894;51.038;13.692;2023-02-28T14:45:56;10.67;;;8.97;;
3757;SDS011;1894;51.038;13.692;2023-02-28T14:48:27;14.07;;;9.57;;
3757;SDS011;1894;51.038;13.692;2023-02-28T14:50:56;13.17;;;10.57;;
3757;SDS011;1894;51.038;13.692;2023-02-28T14:53:27;9.57;;;7.93;;
3757;SDS011;1894;51.038;13.692;2023-02-28T14:56:01;11.87;;;9.03;;
3757;SDS011;1894;51.038;13.692;2023-02-28T14:58:30;11.40;;;10.20;;
3757;SDS011;1894;51.038;13.692;2023-02-28T15:01:00;11.10;;;10.00;;
3757;SDS011;1894;51.038;13.692;2023-02-28T15:03:31;12.40;;;9.20;;
3757;SDS011;1894;51.038;13.692;2023-02-28T15:06:02;12.53;;;10.90;;
3757;SDS011;1894;51.038;13.692;2023-02-28T15:08:40;14.17;;;10.40;;
3757;SDS011;1894;51.038;13.692;2023-02-28T15:11:08;10.00;;;9.00;;
3757;SDS011;1894;51.038;13.692;2023-02-28T15:13:42;13.30;;;10.57;;
3757;SDS011;1894;51.038;13.692;2023-02-28T15:21:36;16.23;;;11.03;;
3757;SDS011;1894;51.038;13.692;2023-02-28T15:24:16;17.23;;;11.70;;
3757;SDS011;1894;51.038;13.692;2023-02-28T15:27:22;13.57;;;10.90;;
3757;SDS011;1894;51.038;13.692;2023-02-28T15:29:58;14.00;;;10.83;;
3757;SDS011;1894;51.038;13.692;2023-02-28T15:32:36;15.63;;;10.70;;
3757;SDS011;1894;51.038;13.692;2023-02-28T15:40:28;16.73;;;10.80;;
3757;SDS011;1894;51.038;13.692;2023-02-28T15:45:46;18.70;;;11.27;;
3757;SDS011;1894;51.038;13.692;2023-02-28T15:50:51;18.03;;;11.40;;
3757;SDS011;1894;51.038;13.692;2023-02-28T15:59:04;13.47;;;10.00;;
3757;SDS011;1894;51.038;13.692;2023-02-28T16:01:37;17.27;;;9.60;;
3757;SDS011;1894;51.038;13.692;2023-02-28T16:04:16;13.30;;;9.23;;
3757;SDS011;1894;51.038;13.692;2023-02-28T16:06:46;14.37;;;10.80;;
3757;SDS011;1894;51.038;13.692;2023-02-28T16:09:26;16.13;;;10.13;;
3757;SDS011;1894;51.038;13.692;2023-02-28T16:11:54;15.53;;;9.83;;
3757;SDS011;1894;51.038;13.692;2023-02-28T16:14:25;14.13;;;10.20;;
3757;SDS011;1894;51.038;13.692;2023-02-28T16:16:57;26.03;;;16.43;;
3757;SDS011;1894;51.038;13.692;2023-02-28T16:19:35;16.70;;;11.50;;
3757;SDS011;1894;51.038;13.692;2023-02-28T16:22:02;22.63;;;11.33;;
3757;SDS011;1894;51.038;13.692;2023-02-28T16:24:29;19.50;;;12.57;;
3757;SDS011;1894;51.038;13.692;2023-02-28T16:26:56;15.60;;;8.90;;
3757;SDS011;1894;51.038;13.692;2023-02-28T16:29:28;15.23;;;10.67;;
3757;SDS011;1894;51.038;13.692;2023-02-28T16:31:59;17.23;;;11.20;;
3757;SDS011;1894;51.038;13.692;2023-02-28T16:34:27;19.60;;;11.73;;
3757;SDS011;1894;51.038;13.692;2023-02-28T16:36:54;17.13;;;10.87;;
3757;SDS011;1894;51.038;13.692;2023-02-28T16:39:21;16.07;;;9.90;;
3757;SDS011;1894;51.038;13.692;2023-02-28T16:41:49;18.43;;;10.30;;
3757;SDS011;1894;51.038;13.692;2023-02-28T16:44:31;18.60;;;10.60;;
3757;SDS011;1894;51.038;13.692;2023-02-28T16:47:02;17.10;;;10.50;;
3757;SDS011;1894;51.038;13.692;2023-02-28T16:49:30;17.60;;;10.37;;
3757;SDS011;1894;51.038;13.692;2023-02-28T16:51:58;17.20;;;11.13;;
3757;SDS011;1894;51.038;13.692;2023-02-28T16:54:25;17.10;;;11.37;;
3757;SDS011;1894;51.038;13.692;2023-02-28T16:56:53;18.77;;;12.90;;
3757;SDS011;1894;51.038;13.692;2023-02-28T16:59:24;19.30;;;11.43;;
3757;SDS011;1894;51.038;13.692;2023-02-28T17:01:54;20.17;;;12.53;;
3757;SDS011;1894;51.038;13.692;2023-02-28T17:04:25;15.07;;;10.37;;
3757;SDS011;1894;51.038;13.692;2023-02-28T17:06:53;23.97;;;13.90;;
3757;SDS011;1894;51.038;13.692;2023-02-28T17:09:21;16.63;;;12.33;;
3757;SDS011;1894;51.038;13.692;2023-02-28T17:12:06;20.37;;;13.40;;
3757;SDS011;1894;51.038;13.692;2023-02-28T17:14:35;22.43;;;13.97;;
3757;SDS011;1894;51.038;13.692;2023-02-28T17:17:03;20.27;;;13.70;;
3757;SDS011;1894;51.038;13.692;2023-02-28T17:19:32;22.17;;;13.70;;
3757;SDS011;1894;51.038;13.692;2023-02-28T17:22:00;23.07;;;15.20;;
3757;SDS011;1894;51.038;13.692;2023-02-28T17:24:29;24.70;;;16.67;;
3757;SDS011;1894;51.038;13.692;2023-02-28T17:26:57;37.70;;;22.07;;
3757;SDS011;1894;51.038;13.692;2023-02-28T17:29:24;36.67;;;22.47;;
3757;SDS011;1894;51.038;13.692;2023-02-28T17:31:51;27.07;;;18.53;;
3757;SDS011;1894;51.038;13.692;2023-02-28T17:34:19;34.57;;;21.90;;
3757;SDS011;1894;51.038;13.692;2023-02-28T17:36:47;33.03;;;19.07;;
3757;SDS011;1894;51.038;13.692;2023-02-28T17:39:17;32.43;;;18.30;;
3757;SDS011;1894;51.038;13.692;2023-02-28T17:41:55;35.77;;;20.43;;
3757;SDS011;1894;51.038;13.692;2023-02-28T17:44:23;28.50;;;20.10;;
3757;SDS011;1894;51.038;13.692;2023-02-28T17:46:51;28.20;;;19.10;;
3757;SDS011;1894;51.038;13.692;2023-02-28T17:49:21;34.70;;;19.40;;
3757;SDS011;1894;51.038;13.692;2023-02-28T17:51:48;28.43;;;16.20;;
3757;SDS011;1894;51.038;13.692;2023-02-28T17:54:16;33.17;;;19.70;;
3757;SDS011;1894;51.038;13.692;2023-02-28T17:56:44;32.70;;;19.00;;
3757;SDS011;1894;51.038;13.692;2023-02-28T17:59:12;30.10;;;18.07;;
3757;SDS011;1894;51.038;13.692;2023-02-28T18:01:39;32.43;;;19.17;;
3757;SDS011;1894;51.038;13.692;2023-02-28T18:04:06;26.50;;;16.53;;
3757;SDS011;1894;51.038;13.692;2023-02-28T18:06:38;25.60;;;15.47;;
3757;SDS011;1894;51.038;13.692;2023-02-28T18:09:14;24.70;;;15.30;;
3757;SDS011;1894;51.038;13.692;2023-02-28T18:11:49;27.10;;;17.00;;
3757;SDS011;1894;51.038;13.692;2023-02-28T18:14:18;29.90;;;19.10;;
3757;SDS011;1894;51.038;13.692;2023-02-28T18:16:49;32.60;;;19.30;;